Time;durP1;ratioP1;P1;durP2;ratioP2;P2;SDS_P1;SDS_P2;PMS_P1;PMS_P2;Temp;Humidity;BMP_temperature;BMP_pressure;BME280_temperature;BME280_humidity;BME280_pressure;Samples;Min_cycle;Max_cycle;Signal;HPM_P1;HPM_P2
2021/12/16 00:08:08;;;;;;;;;;;;;;;-0.38;100.00;100397.78;1711218;82;21161;-73
2021/12/16 00:10:30;;;;;;;;;;;;;;;-0.36;100.00;100404.31;1734732;82;20455;-73
2021/12/16 00:32:03;;;;;;;;;;;;;;;-0.39;100.00;100408.80;1675854;82;20199;-71
2021/12/16 00:34:28;;;;;;;;;;;;;;;-0.38;100.00;100414.50;1724988;81;21010;-71
2021/12/16 00:36:55;;;;;;;;;;;;;;;-0.36;100.00;100410.53;1732495;81;20094;-72
2021/12/16 00:39:28;;;;;;;;;;;;;;;-0.37;100.00;100409.40;1760647;81;20470;-71
2021/12/16 00:42:03;;;;;;;;;;;;;;;-0.40;100.00;100403.93;1760904;81;20478;-71
2021/12/16 00:49:41;;;;;;;;;;;;;;;-0.38;100.00;100390.22;1760639;81;20094;-71
2021/12/16 00:55:03;;;;;;;;;;;;;;;-0.40;100.00;100388.27;1760738;81;20091;-72
2021/12/16 00:57:21;;;;;;;;;;;;;;;-0.39;100.00;100391.27;1759285;81;20119;-72
2021/12/16 00:59:50;;;;;;;;;;;;;;;-0.42;100.00;100384.97;1760752;81;21441;-74
2021/12/16 01:05:52;;;;;;;;;;;;;;;-0.45;100.00;100387.58;1761113;81;20417;-73
2021/12/16 01:35:09;;;;;;;;;;;;;;;-0.47;100.00;100338.42;1732534;81;20118;-72
2021/12/16 01:40:26;;;;;;;;;;;;;;;-0.44;100.00;100334.45;1760611;81;21032;-71
2021/12/16 01:45:36;;;;;;;;;;;;;;;-0.44;100.00;100337.16;1716219;81;20082;-73
2021/12/16 01:50:50;;;;;;;;;;;;;;;-0.44;100.00;100335.81;1760626;81;20107;-71
2021/12/16 01:55:47;;;;;;;;;;;;;;;-0.47;100.00;100329.52;1760621;81;20114;-73
2021/12/16 01:58:18;;;;;;;;;;;;;;;-0.47;100.00;100341.65;1732521;81;20122;-72
2021/12/16 02:00:53;;;;;;;;;;;;;;;-0.47;100.00;100340.30;1759524;81;20122;-71
2021/12/16 02:03:12;;;;;;;;;;;;;;;-0.49;100.00;100337.00;1731110;81;20094;-71
2021/12/16 02:08:31;;;;;;;;;;;;;;;-0.52;100.00;100340.97;1760549;81;20134;-73
2021/12/16 02:11:23;;;;;;;;;;;;;;;-0.50;100.00;100343.45;1760217;81;20431;-72
2021/12/16 02:27:37;;;;;;;;;;;;;;;-0.55;100.00;100330.62;1760706;81;20106;-71
2021/12/16 02:37:48;;;;;;;;;;;;;;;-0.49;100.00;100318.13;1739242;81;20072;-72
2021/12/16 02:40:13;;;;;;;;;;;;;;;-0.52;100.00;100316.70;1738665;81;20112;-72
2021/12/16 02:43:08;;;;;;;;;;;;;;;-0.52;100.00;100313.17;1724556;82;20121;-73
2021/12/16 02:50:41;;;;;;;;;;;;;;;-0.50;100.00;100313.25;1709452;84;20441;-72
2021/12/16 02:53:07;;;;;;;;;;;;;;;-0.49;100.00;100319.47;1709541;84;20165;-71
2021/12/16 02:55:33;;;;;;;;;;;;;;;-0.50;100.00;100315.13;1689091;84;20128;-71
2021/12/16 02:58:00;;;;;;;;;;;;;;;-0.51;100.00;100310.78;1709330;84;21152;-73
2021/12/16 03:00:30;;;;;;;;;;;;;;;-0.48;100.00;100304.94;1709371;84;20488;-73
2021/12/16 03:02:57;;;;;;;;;;;;;;;-0.47;100.00;100306.58;1709461;83;20457;-73
2021/12/16 03:05:24;;;;;;;;;;;;;;;-0.42;100.00;100305.39;1709273;84;20109;-73
2021/12/16 03:07:51;;;;;;;;;;;;;;;-0.44;100.00;100302.91;1709670;83;20125;-72
2021/12/16 03:13:03;;;;;;;;;;;;;;;-0.44;100.00;100294.00;1709473;84;20093;-71
2021/12/16 03:16:19;;;;;;;;;;;;;;;-0.46;100.00;100287.48;1687815;84;20097;-71
2021/12/16 03:26:05;;;;;;;;;;;;;;;-0.40;100.00;100273.61;1688968;84;20090;-72
2021/12/16 03:38:44;;;;;;;;;;;;;;;-0.32;100.00;100288.67;1744250;81;20102;-71
2021/12/16 03:41:10;;;;;;;;;;;;;;;-0.30;100.00;100286.05;1704279;81;20443;-73
2021/12/16 03:43:38;;;;;;;;;;;;;;;-0.28;100.00;100281.77;1732199;81;20435;-73
2021/12/16 03:48:46;;;;;;;;;;;;;;;-0.29;100.00;100290.91;1749581;81;21630;-73
2021/12/16 03:51:17;;;;;;;;;;;;;;;-0.27;100.00;100282.89;1736372;81;20121;-73
2021/12/16 03:53:46;;;;;;;;;;;;;;;-0.29;100.00;100287.69;1641478;84;20129;-72
2021/12/16 03:56:14;;;;;;;;;;;;;;;-0.31;100.00;100283.57;1684747;84;20101;-71
2021/12/16 03:58:55;;;;;;;;;;;;;;;-0.30;100.00;100290.09;1658672;84;20442;-73
2021/12/16 04:01:26;;;;;;;;;;;;;;;-0.32;100.00;100284.09;1710509;83;21091;-73
2021/12/16 04:03:52;;;;;;;;;;;;;;;-0.32;100.00;100283.27;1708456;83;20172;-73
2021/12/16 04:06:21;;;;;;;;;;;;;;;-0.34;100.00;100282.97;1680993;83;20104;-72
2021/12/16 04:08:48;;;;;;;;;;;;;;;-0.35;100.00;100281.33;1706135;83;20148;-72
2021/12/16 04:11:20;;;;;;;;;;;;;;;-0.36;100.00;100285.08;1678091;83;20569;-72
2021/12/16 04:13:57;;;;;;;;;;;;;;;-0.37;100.00;100282.08;1711923;83;21134;-71
2021/12/16 04:16:31;;;;;;;;;;;;;;;-0.36;100.00;100286.95;1707446;83;20196;-72
2021/12/16 04:18:59;;;;;;;;;;;;;;;-0.34;100.00;100283.50;1677326;84;20155;-73
2021/12/16 04:21:27;;;;;;;;;;;;;;;-0.36;100.00;100280.20;1686527;83;20563;-72
2021/12/16 04:23:55;;;;;;;;;;;;;;;-0.40;100.00;100281.18;1683991;83;20167;-73
2021/12/16 04:26:23;;;;;;;;;;;;;;;-0.40;100.00;100286.58;1705855;83;21113;-72
2021/12/16 04:28:50;;;;;;;;;;;;;;;-0.39;100.00;100276.61;1708758;83;20482;-73
2021/12/16 04:31:16;;;;;;;;;;;;;;;-0.41;100.00;100263.87;1683478;84;20432;-73
2021/12/16 04:33:42;;;;;;;;;;;;;;;-0.42;100.00;100254.95;1658448;84;20440;-73
2021/12/16 04:36:10;;;;;;;;;;;;;;;-0.39;100.00;100263.13;1711262;83;20183;-69
2021/12/16 04:38:36;;;;;;;;;;;;;;;-0.38;100.00;100266.12;1678015;84;21031;-72
2021/12/16 04:41:04;;;;;;;;;;;;;;;-0.35;100.00;100258.92;1699659;83;20177;-73
2021/12/16 04:43:39;;;;;;;;;;;;;;;-0.31;100.00;100260.11;1695766;84;20477;-73
2021/12/16 04:46:01;;;;;;;;;;;;;;;-0.28;100.00;100254.79;1665216;86;20429;-72
2021/12/16 04:48:27;;;;;;;;;;;;;;;-0.27;100.00;100249.69;1695679;84;20487;-72
2021/12/16 04:50:55;;;;;;;;;;;;;;;-0.27;100.00;100243.77;1708289;83;21557;-73
2021/12/16 04:53:21;;;;;;;;;;;;;;;-0.27;100.00;100233.50;1705833;83;20103;-73
2021/12/16 04:55:49;;;;;;;;;;;;;;;-0.28;100.00;100244.00;1669623;84;20087;-73
2021/12/16 04:58:15;;;;;;;;;;;;;;;-0.29;100.00;100241.83;1669588;84;20152;-73
2021/12/16 05:00:43;;;;;;;;;;;;;;;-0.30;100.00;100235.30;1695599;84;20453;-73
2021/12/16 05:03:13;;;;;;;;;;;;;;;-0.30;100.00;100240.17;1695592;84;20104;-72
2021/12/16 05:05:41;;;;;;;;;;;;;;;-0.31;100.00;100233.13;1695503;84;20132;-71
2021/12/16 05:08:07;;;;;;;;;;;;;;;-0.32;100.00;100230.14;1695581;84;20111;-74
2021/12/16 05:10:39;;;;;;;;;;;;;;;-0.32;100.00;100223.92;1695377;84;20658;-71
2021/12/16 05:13:07;;;;;;;;;;;;;;;-0.30;100.00;100235.30;1695582;84;20087;-73
2021/12/16 05:15:37;;;;;;;;;;;;;;;-0.30;100.00;100228.56;1695462;84;21152;-74
2021/12/16 05:18:07;;;;;;;;;;;;;;;-0.31;100.00;100226.39;1695559;84;20104;-72
2021/12/16 05:20:39;;;;;;;;;;;;;;;-0.29;100.00;100225.64;1694862;84;20450;-71
2021/12/16 05:26:33;;;;;;;;;;;;;;;-0.31;100.00;100226.39;1695579;84;20095;-72
2021/12/16 05:28:22;;;;;;;;;;;;;;;-0.31;100.00;100225.56;1668650;84;21099;-73
2021/12/16 05:30:49;;;;;;;;;;;;;;;-0.32;100.00;100225.27;1665388;84;20417;-72
2021/12/16 05:33:16;;;;;;;;;;;;;;;-0.35;100.00;100220.63;1718710;83;20152;-72
2021/12/16 05:35:43;;;;;;;;;;;;;;;-0.38;100.00;100218.91;1717093;83;20529;-73
2021/12/16 05:38:09;;;;;;;;;;;;;;;-0.41;100.00;100217.48;1701808;84;20416;-73
2021/12/16 05:40:36;;;;;;;;;;;;;;;-0.45;100.00;100214.95;1664263;86;21139;-71
2021/12/16 05:43:14;;;;;;;;;;;;;;;-0.48;100.00;100226.19;1651899;85;20128;-72
2021/12/16 05:45:41;;;;;;;;;;;;;;;-0.49;100.00;100231.81;1678975;85;20458;-72
2021/12/16 05:48:09;;;;;;;;;;;;;;;-0.52;100.00;100243.87;1677560;85;20472;-72
2021/12/16 05:50:38;;;;;;;;;;;;;;;-0.54;100.00;100248.67;1672170;85;20164;-72
2021/12/16 05:53:05;;;;;;;;;;;;;;;-0.55;100.00;100249.72;1679060;85;21188;-73
2021/12/16 05:55:32;;;;;;;;;;;;;;;-0.56;100.00;100249.42;1669135;85;20160;-71
2021/12/16 05:58:02;;;;;;;;;;;;;;;-0.55;100.00;100253.77;1668341;85;20127;-75
2021/12/16 06:00:31;;;;;;;;;;;;;;;-0.53;100.00;100258.94;1690972;85;20103;-72
2021/12/16 06:02:59;;;;;;;;;;;;;;;-0.53;100.00;100253.54;1678722;85;20154;-80
2021/12/16 06:05:26;;;;;;;;;;;;;;;-0.53;100.00;100254.89;1673384;85;21097;-74
2021/12/16 06:07:53;;;;;;;;;;;;;;;-0.52;100.00;100252.49;1676742;85;20123;-75
2021/12/16 06:10:54;;;;;;;;;;;;;;;-0.49;100.00;100251.52;1663324;85;20133;-70
2021/12/16 06:13:07;;;;;;;;;;;;;;;-0.47;100.00;100251.29;1660778;86;20163;-77
2021/12/16 06:26:29;;;;;;;;;;;;;;;-0.29;100.00;100253.97;1662744;86;20125;-69
2021/12/16 06:28:51;;;;;;;;;;;;;;;-0.28;100.00;100253.44;1662556;86;20133;-69
2021/12/16 06:31:17;;;;;;;;;;;;;;;-0.28;100.00;100255.61;1663239;86;20992;-69
2021/12/16 06:33:44;;;;;;;;;;;;;;;-0.25;100.00;100254.33;1663043;86;20157;-70
2021/12/16 06:36:10;;;;;;;;;;;;;;;-0.21;100.00;100253.66;1676216;84;20128;-69
2021/12/16 06:38:38;;;;;;;;;;;;;;;-0.22;100.00;100251.18;1695517;84;20124;-69
2021/12/16 06:41:11;;;;;;;;;;;;;;;-0.20;100.00;100246.38;1694981;84;20155;-69
2021/12/16 06:43:43;;;;;;;;;;;;;;;-0.20;100.00;100244.50;1695752;84;21797;-69
2021/12/16 06:46:15;;;;;;;;;;;;;;;-0.17;100.00;100237.30;1695449;84;20119;-69
2021/12/16 06:48:42;;;;;;;;;;;;;;;-0.16;100.00;100236.25;1695200;84;20548;-69
2021/12/16 06:51:12;;;;;;;;;;;;;;;-0.12;100.00;100231.22;1695605;84;20107;-69
2021/12/16 06:53:47;;;;;;;;;;;;;;;-0.10;100.00;100230.47;1695011;84;20118;-69
2021/12/16 06:56:32;;;;;;;;;;;;;;;-0.09;100.00;100226.19;1695534;84;21078;-69
2021/12/16 06:59:11;;;;;;;;;;;;;;;-0.11;100.00;100209.92;1668504;84;20091;-69
2021/12/16 07:04:12;;;;;;;;;;;;;;;-0.15;100.00;100206.04;1695627;84;20427;-69
2021/12/16 07:06:40;;;;;;;;;;;;;;;-0.17;100.00;100205.45;1695537;84;20451;-69
2021/12/16 07:09:13;;;;;;;;;;;;;;;-0.20;100.00;100205.91;1695489;84;21583;-69
2021/12/16 07:11:41;;;;;;;;;;;;;;;-0.21;100.00;100203.73;1695406;84;20091;-69
2021/12/16 07:14:12;;;;;;;;;;;;;;;-0.22;100.00;100196.69;1695521;84;20115;-69
2021/12/16 07:16:35;;;;;;;;;;;;;;;-0.22;100.00;100189.94;1695059;84;20151;-69
2021/12/16 07:19:01;;;;;;;;;;;;;;;-0.21;100.00;100184.02;1695862;84;20168;-69
2021/12/16 07:21:27;;;;;;;;;;;;;;;-0.21;100.00;100187.54;1695625;84;21052;-69
2021/12/16 07:23:53;;;;;;;;;;;;;;;-0.21;100.00;100180.80;1695716;84;20139;-69
2021/12/16 07:26:19;;;;;;;;;;;;;;;-0.20;100.00;100189.19;1695490;84;20087;-70
2021/12/16 07:28:46;;;;;;;;;;;;;;;-0.19;100.00;100184.61;1688740;84;20520;-76
2021/12/16 07:31:12;;;;;;;;;;;;;;;-0.16;100.00;100183.63;1724381;83;20126;-72
2021/12/16 07:33:38;;;;;;;;;;;;;;;-0.12;100.00;100185.34;1725001;83;21149;-72
2021/12/16 07:36:05;;;;;;;;;;;;;;;-0.12;100.00;100183.47;1699066;83;20118;-73
2021/12/16 07:38:31;;;;;;;;;;;;;;;-0.08;100.00;100181.12;1687664;84;20464;-72
2021/12/16 07:40:57;;;;;;;;;;;;;;;-0.05;100.00;100171.22;1675909;85;20496;-72
2021/12/16 07:43:52;;;;;;;;;;;;;;;-0.03;100.00;100169.11;1693773;84;20150;-72
2021/12/16 07:45:56;;;;;;;;;;;;;;;-0.01;100.00;100167.83;1699803;84;21334;-72
2021/12/16 07:48:25;;;;;;;;;;;;;;;0.00;100.00;100166.74;1704142;84;20147;-72
2021/12/16 07:50:53;;;;;;;;;;;;;;;0.04;100.00;100163.58;1704167;84;20150;-73
2021/12/16 07:53:21;;;;;;;;;;;;;;;0.05;100.00;100163.34;1699104;84;20118;-72
2021/12/16 07:55:48;;;;;;;;;;;;;;;0.05;100.00;100157.12;1691866;84;20205;-74
2021/12/16 07:58:14;;;;;;;;;;;;;;;0.06;100.00;100150.67;1680793;84;21527;-72
2021/12/16 08:00:40;;;;;;;;;;;;;;;0.02;100.00;100144.92;1676225;85;20152;-72
2021/12/16 08:03:08;;;;;;;;;;;;;;;0.02;100.00;100152.20;1675922;85;20160;-71
2021/12/16 08:05:37;;;;;;;;;;;;;;;0.04;100.00;100147.38;1675926;85;20480;-73
2021/12/16 08:08:04;;;;;;;;;;;;;;;0.10;100.00;100149.98;1675145;85;20152;-72
2021/12/16 08:10:31;;;;;;;;;;;;;;;0.15;100.00;100156.03;1695899;84;21079;-72
2021/12/16 08:12:57;;;;;;;;;;;;;;;0.17;100.00;100150.70;1702502;84;20189;-72
2021/12/16 08:15:24;;;;;;;;;;;;;;;0.18;100.00;100150.17;1701975;84;20122;-71
2021/12/16 08:17:53;;;;;;;;;;;;;;;0.18;100.00;100152.87;1687817;84;20149;-72
2021/12/16 08:20:19;;;;;;;;;;;;;;;0.18;100.00;100156.92;1689290;84;20206;-71
2021/12/16 08:22:47;;;;;;;;;;;;;;;0.19;100.00;100153.98;1699970;84;22115;-72
2021/12/16 08:25:14;;;;;;;;;;;;;;;0.19;100.00;100149.94;1658997;86;20109;-72
2021/12/16 08:27:40;;;;;;;;;;;;;;;0.22;100.00;100151.34;1682047;84;20464;-70
2021/12/16 08:30:11;;;;;;;;;;;;;;;0.25;100.00;100151.70;1687243;84;20173;-71
2021/12/16 08:32:37;;;;;;;;;;;;;;;0.29;100.00;100156.11;1650243;85;20161;-71
2021/12/16 08:35:14;;;;;;;;;;;;;;;0.32;100.00;100156.99;1675984;85;21572;-70
2021/12/16 08:37:43;;;;;;;;;;;;;;;0.31;100.00;100150.77;1671281;84;20121;-70
2021/12/16 08:40:13;;;;;;;;;;;;;;;0.30;100.00;100150.48;1656297;86;20090;-70
2021/12/16 08:42:46;;;;;;;;;;;;;;;0.30;100.00;100143.72;1642572;86;20148;-70
2021/12/16 08:45:15;;;;;;;;;;;;;;;0.33;100.00;100137.86;1672217;85;20471;-70
2021/12/16 08:47:47;;;;;;;;;;;;;;;0.36;100.00;100128.46;1646133;86;20099;-71
2021/12/16 08:50:15;;;;;;;;;;;;;;;0.37;100.00;100129.28;1713636;83;20118;-70
2021/12/16 08:52:46;;;;;;;;;;;;;;;0.37;100.00;100124.70;1659090;85;20173;-71
2021/12/16 08:55:14;;;;;;;;;;;;;;;0.39;100.00;100115.84;1659065;85;20148;-71
2021/12/16 08:57:43;;;;;;;;;;;;;;;0.42;100.00;100123.47;1704298;84;20114;-71
2021/12/16 09:00:14;;;;;;;;;;;;;;;0.42;100.00;100112.67;1701672;84;21224;-70
2021/12/16 09:02:47;;;;;;;;;;;;;;;0.44;100.00;100114.61;1703013;84;20489;-71
2021/12/16 09:05:17;;;;;;;;;;;;;;;0.45;100.00;100101.39;1686406;84;20491;-71
2021/12/16 09:07:48;;;;;;;;;;;;;;;0.48;100.00;100102.27;1675276;85;20468;-72
2021/12/16 09:10:15;;;;;;;;;;;;;;;0.46;100.00;100090.88;1678669;84;20141;-72
2021/12/16 09:13:00;;;;;;;;;;;;;;;0.48;100.00;100089.30;1650483;85;20125;-72
2021/12/16 09:15:17;;;;;;;;;;;;;;;0.49;100.00;100080.95;1672941;85;20132;-76
2021/12/16 09:17:46;;;;;;;;;;;;;;;0.52;100.00;100073.73;1651135;85;20157;-75
2021/12/16 09:20:14;;;;;;;;;;;;;;;0.55;100.00;100073.25;1651126;85;20133;-80
2021/12/16 09:22:47;;;;;;;;;;;;;;;0.58;100.00;100067.34;1688925;83;20121;-76
2021/12/16 09:25:13;;;;;;;;;;;;;;;0.61;100.00;100065.52;1703664;84;21813;-70
2021/12/16 09:27:41;;;;;;;;;;;;;;;0.64;100.00;100062.34;1677688;84;20463;-76
2021/12/16 09:30:14;;;;;;;;;;;;;;;0.69;100.00;100066.21;1675297;84;20116;-79
2021/12/16 09:32:45;;;;;;;;;;;;;;;0.68;100.00;100058.63;1691852;84;20185;-74
2021/12/16 09:35:11;;;;;;;;;;;;;;;0.70;100.00;100051.11;1684923;84;20126;-73
2021/12/16 09:37:49;;;;;;;;;;;;;;;0.72;100.00;100047.64;1677415;84;21189;-77
2021/12/16 09:40:16;;;;;;;;;;;;;;;0.75;100.00;100042.28;1669097;86;20149;-78
2021/12/16 09:42:49;;;;;;;;;;;;;;;0.76;100.00;100036.64;1670465;86;20176;-72
2021/12/16 09:45:15;;;;;;;;;;;;;;;0.78;100.00;100033.70;1670616;86;20133;-70
2021/12/16 09:47:48;;;;;;;;;;;;;;;0.81;100.00;100025.94;1642312;86;20460;-75
2021/12/16 09:50:20;;;;;;;;;;;;;;;0.87;100.00;100032.27;1670698;86;21126;-73
2021/12/16 09:52:57;;;;;;;;;;;;;;;0.91;100.00;100026.67;1670559;86;20460;-73
2021/12/16 09:55:22;;;;;;;;;;;;;;;0.93;100.00;100028.59;1669590;86;20173;-79
2021/12/16 09:58:00;;;;;;;;;;;;;;;0.95;100.00;100021.06;1620270;86;20157;-73
2021/12/16 10:00:28;;;;;;;;;;;;;;;0.95;100.00;100022.42;1641067;86;20180;-74
2021/12/16 10:03:04;;;;;;;;;;;;;;;0.97;100.00;100010.30;1642366;86;20149;-73
2021/12/16 10:05:36;;;;;;;;;;;;;;;1.00;100.00;100002.24;1670572;86;20125;-73
2021/12/16 10:08:12;;;;;;;;;;;;;;;1.03;100.00;100003.11;1670514;86;20411;-75
2021/12/16 10:10:40;;;;;;;;;;;;;;;1.08;100.00;99999.68;1670125;86;20592;-76
2021/12/16 10:13:06;;;;;;;;;;;;;;;1.13;100.00;99999.24;1664984;86;20148;-75
2021/12/16 10:18:10;;;;;;;;;;;;;;;1.23;100.00;99983.17;1670295;86;20169;-78
2021/12/16 10:20:39;;;;;;;;;;;;;;;1.29;100.00;99983.55;1670726;86;20261;-82
2021/12/16 10:23:09;;;;;;;;;;;;;;;1.34;100.00;99978.76;1671201;86;20145;-83
2021/12/16 10:25:44;;;;;;;;;;;;;;;1.39;100.00;99982.08;1670790;86;20141;-81
2021/12/16 10:28:23;;;;;;;;;;;;;;;1.40;100.00;99979.66;1681527;84;21121;-81
2021/12/16 10:30:54;;;;;;;;;;;;;;;1.40;100.00;99975.07;1674204;84;20149;-80
2021/12/16 10:33:45;;;;;;;;;;;;;;;1.40;100.00;99966.14;1670930;86;20133;-76
2021/12/16 10:36:17;;;;;;;;;;;;;;;1.39;100.00;99960.44;1670173;86;20145;-79
2021/12/16 10:38:53;;;;;;;;;;;;;;;1.37;100.00;99959.86;1675623;84;20459;-83
2021/12/16 10:41:23;;;;;;;;;;;;;;;1.35;100.00;99955.23;1676097;85;21543;-83
2021/12/16 10:43:57;;;;;;;;;;;;;;;1.35;100.00;99952.00;1676140;85;20122;-85
2021/12/16 10:46:26;;;;;;;;;;;;;;;1.34;100.00;99942.23;1676379;85;20484;-83
2021/12/16 10:48:55;;;;;;;;;;;;;;;1.36;100.00;99941.99;1676209;85;20125;-79
2021/12/16 10:51:39;;;;;;;;;;;;;;;1.39;100.00;99945.56;1676055;85;20140;-78
2021/12/16 10:54:13;;;;;;;;;;;;;;;1.39;100.00;99944.20;1647951;85;21579;-79
2021/12/16 10:56:43;;;;;;;;;;;;;;;1.39;100.00;99944.20;1686391;84;20161;-79
2021/12/16 10:59:19;;;;;;;;;;;;;;;1.38;100.00;99945.27;1691471;84;20513;-80
2021/12/16 11:01:49;;;;;;;;;;;;;;;1.38;100.00;99943.92;1679703;84;20143;-82
2021/12/16 11:04:27;;;;;;;;;;;;;;;1.40;100.00;99938.55;1660484;86;20209;-81
2021/12/16 11:06:59;;;;;;;;;;;;;;;1.42;100.00;99934.25;1658486;86;21168;-83
2021/12/16 11:09:48;;;;;;;;;;;;;;;1.42;100.00;99935.06;1660377;86;20237;-83
2021/12/16 11:12:24;;;;;;;;;;;;;;;1.42;100.00;99926.95;1658358;86;20155;-82
2021/12/16 11:14:57;;;;;;;;;;;;;;;1.44;100.00;99926.17;1660064;86;20280;-81
2021/12/16 11:17:25;;;;;;;;;;;;;;;1.48;100.00;99921.09;1658114;86;20334;-83
2021/12/16 11:20:01;;;;;;;;;;;;;;;1.52;100.00;99923.05;1660316;86;21628;-82
2021/12/16 11:22:33;;;;;;;;;;;;;;;1.55;100.00;99923.91;1658547;86;20176;-82
2021/12/16 11:25:32;;;;;;;;;;;;;;;1.56;100.00;99923.38;1689596;85;20162;-82
2021/12/16 11:28:11;;;;;;;;;;;;;;;1.56;100.00;99923.38;1658393;86;20547;-80
2021/12/16 11:30:55;;;;;;;;;;;;;;;1.59;100.00;99917.47;1660621;86;20153;-79
2021/12/16 11:33:28;;;;;;;;;;;;;;;1.57;100.00;99916.37;1659088;86;21161;-79
2021/12/16 11:36:08;;;;;;;;;;;;;;;1.57;100.00;99918.25;1660915;86;20558;-79
2021/12/16 11:38:48;;;;;;;;;;;;;;;1.59;100.00;99910.70;1668797;86;20173;-79
2021/12/16 11:41:39;;;;;;;;;;;;;;;1.62;100.00;99902.09;1658342;86;20420;-79
2021/12/16 11:44:18;;;;;;;;;;;;;;;1.64;100.00;99906.19;1672676;86;20124;-79
2021/12/16 11:46:50;;;;;;;;;;;;;;;1.64;100.00;99901.31;1672904;86;21557;-79
2021/12/16 11:49:43;;;;;;;;;;;;;;;1.67;100.00;99895.94;1672532;86;20156;-79
2021/12/16 11:52:16;;;;;;;;;;;;;;;1.67;100.00;99892.70;1672256;85;20089;-79
2021/12/16 11:54:46;;;;;;;;;;;;;;;1.67;100.00;99889.17;1671243;85;20150;-79
2021/12/16 11:57:16;;;;;;;;;;;;;;;1.69;100.00;99890.56;1655997;86;20167;-79
2021/12/16 11:59:47;;;;;;;;;;;;;;;1.72;100.00;99885.19;1656204;86;21199;-79
2021/12/16 12:02:22;;;;;;;;;;;;;;;1.74;100.00;99879.77;1656138;86;20142;-79
2021/12/16 12:04:48;;;;;;;;;;;;;;;1.74;100.00;99876.25;1656201;86;20214;-79
2021/12/16 12:07:15;;;;;;;;;;;;;;;1.76;100.00;99876.28;1656444;86;20133;-79
2021/12/16 12:09:45;;;;;;;;;;;;;;;1.77;100.00;99865.75;1656308;86;20129;-78
2021/12/16 12:12:11;;;;;;;;;;;;;;;1.76;100.00;99868.16;1656277;86;21158;-79
2021/12/16 12:14:37;;;;;;;;;;;;;;;1.77;100.00;99875.75;1656218;86;20181;-79
2021/12/16 12:17:20;;;;;;;;;;;;;;;1.73;100.00;99864.64;1656471;86;20126;-79
2021/12/16 12:19:49;;;;;;;;;;;;;;;1.75;100.00;99867.06;1656102;86;20524;-79
2021/12/16 12:22:18;;;;;;;;;;;;;;;1.73;100.00;99854.34;1656505;86;20114;-78
2021/12/16 12:24:46;;;;;;;;;;;;;;;1.74;100.00;99847.30;1637233;86;21592;-79
2021/12/16 12:27:21;;;;;;;;;;;;;;;1.74;100.00;99841.88;1656344;86;20493;-79
2021/12/16 12:29:56;;;;;;;;;;;;;;;1.76;100.00;99842.98;1656158;86;20222;-78
2021/12/16 12:32:33;;;;;;;;;;;;;;;1.75;100.00;99839.45;1656386;86;20461;-78
2021/12/16 12:35:07;;;;;;;;;;;;;;;1.74;100.00;99841.88;1656235;86;20158;-78
2021/12/16 12:37:35;;;;;;;;;;;;;;;1.74;100.00;99841.06;1656531;85;20540;-78
2021/12/16 12:40:05;;;;;;;;;;;;;;;1.73;100.00;99840.81;1660667;86;20106;-79
2021/12/16 12:42:32;;;;;;;;;;;;;;;1.72;100.00;99832.41;1660687;86;20110;-79
2021/12/16 12:44:58;;;;;;;;;;;;;;;1.71;100.00;99832.13;1656192;86;20548;-79
2021/12/16 12:47:29;;;;;;;;;;;;;;;1.70;100.00;99824.54;1656214;86;20474;-78
2021/12/16 12:50:08;;;;;;;;;;;;;;;1.69;100.00;99831.02;1659663;85;21133;-78
2021/12/16 12:52:36;;;;;;;;;;;;;;;1.70;100.00;99827.24;1690452;84;20166;-79
2021/12/16 12:55:06;;;;;;;;;;;;;;;1.72;100.00;99831.88;1675984;85;20124;-79
2021/12/16 12:57:34;;;;;;;;;;;;;;;1.72;100.00;99823.75;1676332;85;20133;-78
2021/12/16 13:00:01;;;;;;;;;;;;;;;1.72;100.00;99819.69;1689965;84;20458;-78
2021/12/16 13:02:34;;;;;;;;;;;;;;;1.72;100.00;99821.58;1690262;84;21228;-78
2021/12/16 13:05:04;;;;;;;;;;;;;;;1.73;100.00;99827.28;1683826;84;20149;-78
2021/12/16 13:07:37;;;;;;;;;;;;;;;1.72;100.00;99828.34;1685768;84;20153;-78
2021/12/16 13:10:16;;;;;;;;;;;;;;;1.72;100.00;99831.05;1691420;84;20128;-78
2021/12/16 13:12:54;;;;;;;;;;;;;;;1.70;100.00;99829.95;1689346;84;20201;-79
2021/12/16 13:15:39;;;;;;;;;;;;;;;1.68;100.00;99825.33;1688069;84;21174;-78
2021/12/16 13:23:30;;;;;;;;;;;;;;;1.67;100.00;99826.39;1689601;84;20116;-79
2021/12/16 13:28:57;;;;;;;;;;;;;;;1.66;100.00;99822.05;1690434;84;21188;-79
2021/12/16 13:31:48;;;;;;;;;;;;;;;1.69;100.00;99830.20;1658052;85;20143;-79
2021/12/16 13:34:26;;;;;;;;;;;;;;;1.69;100.00;99833.73;1688446;84;20169;-79
2021/12/16 13:36:56;;;;;;;;;;;;;;;1.68;100.00;99825.33;1692183;84;20106;-78
2021/12/16 13:39:23;;;;;;;;;;;;;;;1.70;100.00;99827.78;1688502;84;20497;-79
2021/12/16 13:42:04;;;;;;;;;;;;;;;1.68;100.00;99832.09;1677156;84;21132;-78
2021/12/16 13:44:42;;;;;;;;;;;;;;;1.67;100.00;99833.16;1683686;84;20141;-79
2021/12/16 14:01:50;;;;;;;;;;;;;;;1.69;100.00;99818.02;1699048;84;20473;-80
2021/12/16 14:06:51;;;;;;;;;;;;;;;1.69;100.00;99823.44;1699290;83;20147;-78
2021/12/16 14:09:16;;;;;;;;;;;;;;;1.69;100.00;99812.08;1696410;84;21148;-79
2021/12/16 14:12:38;;;;;;;;;;;;;;;1.71;100.00;99807.77;1698303;83;20139;-80
2021/12/16 14:23:30;;;;;;;;;;;;;;;1.73;100.00;99805.09;1698944;84;21552;-73
2021/12/16 14:31:36;;;;;;;;;;;;;;;1.75;100.00;99809.69;1698519;84;20177;-72
2021/12/16 14:41:41;;;;;;;;;;;;;;;1.79;100.00;99812.17;1696835;84;20107;-72
2021/12/16 14:46:43;;;;;;;;;;;;;;;1.83;100.00;99811.95;1671617;84;20468;-72
2021/12/16 14:49:04;;;;;;;;;;;;;;;1.84;100.00;99805.47;1686574;84;21189;-73
2021/12/16 14:51:32;;;;;;;;;;;;;;;1.85;100.00;99804.94;1685791;84;20114;-73
2021/12/16 14:53:59;;;;;;;;;;;;;;;1.87;100.00;99806.86;1688649;84;20139;-73
2021/12/16 14:56:28;;;;;;;;;;;;;;;1.90;100.00;99807.70;1698576;84;20162;-74
2021/12/16 14:58:58;;;;;;;;;;;;;;;1.92;100.00;99806.38;1698741;84;20152;-73
2021/12/16 15:04:24;;;;;;;;;;;;;;;1.93;100.00;99802.61;1753468;79;20078;-71
2021/12/16 15:07:01;;;;;;;;;;;;;;;1.94;100.00;99801.53;1766011;81;20081;-72
2021/12/16 15:09:30;;;;;;;;;;;;;;;1.96;100.00;99793.98;1763047;80;20160;-72
2021/12/16 15:12:07;;;;;;;;;;;;;;;1.97;100.00;99788.02;1737061;80;20445;-72
2021/12/16 15:17:13;;;;;;;;;;;;;;;2.01;100.00;99786.98;1757223;81;20532;-73
2021/12/16 15:44:48;;;;;;;;;;;;;;;2.24;100.00;99775.86;1758066;80;20093;-83
2021/12/16 15:47:14;;;;;;;;;;;;;;;2.24;100.00;99778.58;1757854;81;20097;-82
2021/12/16 15:49:41;;;;;;;;;;;;;;;2.27;100.00;99775.35;1758170;81;20082;-80
2021/12/16 15:52:07;;;;;;;;;;;;;;;2.29;100.00;99771.85;1754279;81;20153;-82
2021/12/16 15:54:35;;;;;;;;;;;;;;;2.31;100.00;99772.41;1756271;81;21489;-82
2021/12/16 15:57:02;;;;;;;;;;;;;;;2.30;100.00;99767.53;1756891;81;20528;-81
2021/12/16 15:59:29;;;;;;;;;;;;;;;2.33;100.00;99767.53;1756418;81;20106;-80
2021/12/16 16:01:56;;;;;;;;;;;;;;;2.35;100.00;99765.92;1753260;81;20101;-81
2021/12/16 16:04:26;;;;;;;;;;;;;;;2.35;100.00;99769.98;1726370;81;20135;-79
2021/12/16 16:06:58;;;;;;;;;;;;;;;2.36;100.00;99760.78;1712977;84;21177;-79
2021/12/16 16:09:25;;;;;;;;;;;;;;;2.38;100.00;99758.63;1712825;84;20409;-81
2021/12/16 16:11:53;;;;;;;;;;;;;;;2.37;100.00;99763.23;1712872;83;20100;-84
2021/12/16 16:14:20;;;;;;;;;;;;;;;2.39;100.00;99768.39;1713071;83;20434;-84
2021/12/16 16:16:50;;;;;;;;;;;;;;;2.42;100.00;99768.70;1712996;83;20100;-87
2021/12/16 16:19:20;;;;;;;;;;;;;;;2.47;100.00;99766.04;1713202;84;21935;-84
2021/12/16 16:21:48;;;;;;;;;;;;;;;2.45;100.00;99764.13;1711460;83;20461;-87
2021/12/16 16:24:21;;;;;;;;;;;;;;;2.47;100.00;99757.91;1713323;83;20116;-83
2021/12/16 16:26:49;;;;;;;;;;;;;;;2.48;100.00;99760.90;1712876;84;20099;-85
2021/12/16 16:29:18;;;;;;;;;;;;;;;2.49;100.00;99759.83;1713414;83;20083;-85
2021/12/16 16:31:44;;;;;;;;;;;;;;;2.51;100.00;99755.50;1704898;82;21128;-80
2021/12/16 16:34:30;;;;;;;;;;;;;;;2.52;100.00;99753.08;1688956;84;20238;-82
2021/12/16 16:37:00;;;;;;;;;;;;;;;2.54;100.00;99749.03;1706803;82;20086;-81
2021/12/16 16:39:29;;;;;;;;;;;;;;;2.56;100.00;99756.91;1705066;82;20114;-82